sensor_id;sensor_type;location;lat;lon;timestamp;temperature;humidity
27128;DHT22;14660;49.008;8.390;2023-02-26T00:01:34;3.50;99.90
27128;DHT22;14660;49.008;8.390;2023-02-26T00:04:02;3.50;99.90
27128;DHT22;14660;49.008;8.390;2023-02-26T00:06:34;3.40;99.90
27128;DHT22;14660;49.008;8.390;2023-02-26T00:09:02;3.50;99.90
27128;DHT22;14660;49.008;8.390;2023-02-26T00:11:30;3.40;99.90
27128;DHT22;14660;49.008;8.390;2023-02-26T00:13:57;3.20;99.90
27128;DHT22;14660;49.008;8.390;2023-02-26T00:16:43;3.40;99.90
27128;DHT22;14660;49.008;8.390;2023-02-26T00:19:13;3.40;99.90
27128;DHT22;14660;49.008;8.390;2023-02-26T00:21:41;3.40;99.90
27128;DHT22;14660;49.008;8.390;2023-02-26T00:24:08;3.30;99.90
27128;DHT22;14660;49.008;8.390;2023-02-26T00:26:35;3.50;99.90
27128;DHT22;14660;49.008;8.390;2023-02-26T00:29:03;3.50;99.90
27128;DHT22;14660;49.008;8.390;2023-02-26T00:31:30;3.40;99.90
27128;DHT22;14660;49.008;8.390;2023-02-26T00:33:57;3.30;99.90
27128;DHT22;14660;49.008;8.390;2023-02-26T00:40:00;3.10;99.90
27128;DHT22;14660;49.008;8.390;2023-02-26T00:42:27;3.00;99.90
27128;DHT22;14660;49.008;8.390;2023-02-26T00:44:54;2.80;99.90
27128;DHT22;14660;49.008;8.390;2023-02-26T00:50:26;2.90;99.90
27128;DHT22;14660;49.008;8.390;2023-02-26T00:53:21;3.20;99.90
27128;DHT22;14660;49.008;8.390;2023-02-26T00:55:50;2.90;99.90
27128;DHT22;14660;49.008;8.390;2023-02-26T00:58:17;2.80;99.90
27128;DHT22;14660;49.008;8.390;2023-02-26T01:00:45;3.10;99.90
27128;DHT22;14660;49.008;8.390;2023-02-26T01:03:12;2.70;99.90
27128;DHT22;14660;49.008;8.390;2023-02-26T01:05:40;2.80;99.90
27128;DHT22;14660;49.008;8.390;2023-02-26T01:08:30;2.80;99.90
27128;DHT22;14660;49.008;8.390;2023-02-26T01:10:59;2.80;99.90
27128;DHT22;14660;49.008;8.390;2023-02-26T01:13:26;2.50;99.90
27128;DHT22;14660;49.008;8.390;2023-02-26T01:16:02;2.60;99.90
27128;DHT22;14660;49.008;8.390;2023-02-26T01:21:07;2.50;99.90
27128;DHT22;14660;49.008;8.390;2023-02-26T01:23:46;2.70;99.90
27128;DHT22;14660;49.008;8.390;2023-02-26T01:26:29;2.80;99.90
27128;DHT22;14660;49.008;8.390;2023-02-26T01:28:56;2.70;99.90
27128;DHT22;14660;49.008;8.390;2023-02-26T01:31:56;2.80;99.90
27128;DHT22;14660;49.008;8.390;2023-02-26T01:49:44;2.60;99.90
27128;DHT22;14660;49.008;8.390;2023-02-26T01:55:21;2.50;99.90
27128;DHT22;14660;49.008;8.390;2023-02-26T01:57:50;2.50;99.90
27128;DHT22;14660;49.008;8.390;2023-02-26T02:00:18;2.50;99.90
27128;DHT22;14660;49.008;8.390;2023-02-26T02:02:44;2.50;99.90
27128;DHT22;14660;49.008;8.390;2023-02-26T02:05:18;2.60;99.90
27128;DHT22;14660;49.008;8.390;2023-02-26T02:07:47;2.40;99.90
27128;DHT22;14660;49.008;8.390;2023-02-26T02:10:14;2.30;99.90
27128;DHT22;14660;49.008;8.390;2023-02-26T02:12:48;2.10;99.90
27128;DHT22;14660;49.008;8.390;2023-02-26T02:21:40;2.60;99.90
27128;DHT22;14660;49.008;8.390;2023-02-26T02:27:29;2.80;99.90
27128;DHT22;14660;49.008;8.390;2023-02-26T02:33:12;2.40;99.90
27128;DHT22;14660;49.008;8.390;2023-02-26T02:36:37;2.50;99.90
27128;DHT22;14660;49.008;8.390;2023-02-26T02:38:48;2.30;99.90
27128;DHT22;14660;49.008;8.390;2023-02-26T02:41:23;2.60;99.90
27128;DHT22;14660;49.008;8.390;2023-02-26T02:43:52;2.70;99.90
27128;DHT22;14660;49.008;8.390;2023-02-26T02:46:27;2.50;99.90
27128;DHT22;14660;49.008;8.390;2023-02-26T02:49:08;2.50;99.90
27128;DHT22;14660;49.008;8.390;2023-02-26T02:57:40;2.30;99.90
27128;DHT22;14660;49.008;8.390;2023-02-26T03:00:23;2.30;99.90
27128;DHT22;14660;49.008;8.390;2023-02-26T03:05:55;2.30;99.90
27128;DHT22;14660;49.008;8.390;2023-02-26T03:08:28;2.30;99.90
27128;DHT22;14660;49.008;8.390;2023-02-26T03:10:56;2.40;99.90
27128;DHT22;14660;49.008;8.390;2023-02-26T03:13:24;2.30;99.90
27128;DHT22;14660;49.008;8.390;2023-02-26T03:22:24;2.40;99.90
27128;DHT22;14660;49.008;8.390;2023-02-26T03:25:16;2.60;99.90
27128;DHT22;14660;49.008;8.390;2023-02-26T03:27:59;2.50;99.90
27128;DHT22;14660;49.008;8.390;2023-02-26T03:30:49;2.50;99.90
27128;DHT22;14660;49.008;8.390;2023-02-26T03:36:24;2.00;99.90
27128;DHT22;14660;49.008;8.390;2023-02-26T03:42:08;2.20;99.90
27128;DHT22;14660;49.008;8.390;2023-02-26T03:47:31;2.40;99.90
27128;DHT22;14660;49.008;8.390;2023-02-26T03:50:28;2.10;99.90
27128;DHT22;14660;49.008;8.390;2023-02-26T03:52:57;2.10;99.90
27128;DHT22;14660;49.008;8.390;2023-02-26T03:55:33;2.10;99.90
27128;DHT22;14660;49.008;8.390;2023-02-26T03:58:00;2.10;99.90
27128;DHT22;14660;49.008;8.390;2023-02-26T04:00:28;2.00;99.90
27128;DHT22;14660;49.008;8.390;2023-02-26T04:03:24;1.60;99.90
27128;DHT22;14660;49.008;8.390;2023-02-26T04:05:53;1.50;99.90
27128;DHT22;14660;49.008;8.390;2023-02-26T04:08:21;1.50;99.90
27128;DHT22;14660;49.008;8.390;2023-02-26T04:11:21;1.40;99.90
27128;DHT22;14660;49.008;8.390;2023-02-26T04:13:48;1.60;99.90
27128;DHT22;14660;49.008;8.390;2023-02-26T04:16:16;1.90;99.90
27128;DHT22;14660;49.008;8.390;2023-02-26T04:18:44;2.10;99.90
27128;DHT22;14660;49.008;8.390;2023-02-26T04:21:13;1.90;99.90
27128;DHT22;14660;49.008;8.390;2023-02-26T04:23:40;1.50;99.90
27128;DHT22;14660;49.008;8.390;2023-02-26T04:26:07;1.40;99.90
27128;DHT22;14660;49.008;8.390;2023-02-26T04:28:34;1.20;99.90
27128;DHT22;14660;49.008;8.390;2023-02-26T04:31:04;1.40;99.90
27128;DHT22;14660;49.008;8.390;2023-02-26T04:33:31;1.60;99.90
27128;DHT22;14660;49.008;8.390;2023-02-26T04:35:58;1.30;99.90
27128;DHT22;14660;49.008;8.390;2023-02-26T04:38:26;1.40;99.90
27128;DHT22;14660;49.008;8.390;2023-02-26T04:40:53;1.40;99.90
27128;DHT22;14660;49.008;8.390;2023-02-26T04:43:20;1.50;99.90
27128;DHT22;14660;49.008;8.390;2023-02-26T04:45:48;1.80;99.90
27128;DHT22;14660;49.008;8.390;2023-02-26T04:48:16;1.90;99.90
27128;DHT22;14660;49.008;8.390;2023-02-26T04:50:44;1.80;99.90
27128;DHT22;14660;49.008;8.390;2023-02-26T04:53:11;1.50;99.90
27128;DHT22;14660;49.008;8.390;2023-02-26T04:55:39;1.60;99.90
27128;DHT22;14660;49.008;8.390;2023-02-26T04:58:07;1.80;99.90
27128;DHT22;14660;49.008;8.390;2023-02-26T05:00:34;1.70;99.90
27128;DHT22;14660;49.008;8.390;2023-02-26T05:03:01;1.50;99.90
27128;DHT22;14660;49.008;8.390;2023-02-26T05:05:28;1.60;99.90
27128;DHT22;14660;49.008;8.390;2023-02-26T05:07:53;1.60;99.90
27128;DHT22;14660;49.008;8.390;2023-02-26T05:10:23;1.40;99.90
27128;DHT22;14660;49.008;8.390;2023-02-26T05:12:50;1.30;99.90
27128;DHT22;14660;49.008;8.390;2023-02-26T05:15:17;1.30;99.90
27128;DHT22;14660;49.008;8.390;2023-02-26T05:17:44;1.20;99.90
27128;DHT22;14660;49.008;8.390;2023-02-26T05:20:11;1.30;99.90
27128;DHT22;14660;49.008;8.390;2023-02-26T05:22:38;1.20;99.90
27128;DHT22;14660;49.008;8.390;2023-02-26T05:25:08;1.10;99.90
27128;DHT22;14660;49.008;8.390;2023-02-26T05:27:36;1.20;99.90
27128;DHT22;14660;49.008;8.390;2023-02-26T05:30:03;1.30;99.90
27128;DHT22;14660;49.008;8.390;2023-02-26T05:32:30;1.40;99.90
27128;DHT22;14660;49.008;8.390;2023-02-26T05:34:57;1.30;99.90
27128;DHT22;14660;49.008;8.390;2023-02-26T05:37:24;1.20;99.90
27128;DHT22;14660;49.008;8.390;2023-02-26T05:39:52;1.30;99.90
27128;DHT22;14660;49.008;8.390;2023-02-26T05:42:18;1.40;99.90
27128;DHT22;14660;49.008;8.390;2023-02-26T05:44:45;1.50;99.90
27128;DHT22;14660;49.008;8.390;2023-02-26T05:47:12;1.10;99.90
27128;DHT22;14660;49.008;8.390;2023-02-26T05:49:39;0.90;99.90
27128;DHT22;14660;49.008;8.390;2023-02-26T05:52:07;0.90;99.90
27128;DHT22;14660;49.008;8.390;2023-02-26T05:54:34;1.00;99.90
27128;DHT22;14660;49.008;8.390;2023-02-26T05:57:02;1.30;99.90
27128;DHT22;14660;49.008;8.390;2023-02-26T05:59:29;1.10;99.90
27128;DHT22;14660;49.008;8.390;2023-02-26T06:01:56;1.20;99.90
27128;DHT22;14660;49.008;8.390;2023-02-26T06:04:25;1.30;99.90
27128;DHT22;14660;49.008;8.390;2023-02-26T06:06:52;1.50;99.90
27128;DHT22;14660;49.008;8.390;2023-02-26T06:09:19;1.60;99.90
27128;DHT22;14660;49.008;8.390;2023-02-26T06:11:45;1.70;99.90
27128;DHT22;14660;49.008;8.390;2023-02-26T06:14:12;1.40;99.90
27128;DHT22;14660;49.008;8.390;2023-02-26T06:16:39;1.30;99.90
27128;DHT22;14660;49.008;8.390;2023-02-26T06:19:06;1.50;99.90
27128;DHT22;14660;49.008;8.390;2023-02-26T06:21:33;1.50;99.90
27128;DHT22;14660;49.008;8.390;2023-02-26T06:24:00;1.40;99.90
27128;DHT22;14660;49.008;8.390;2023-02-26T06:26:26;1.30;99.90
27128;DHT22;14660;49.008;8.390;2023-02-26T06:28:54;1.30;99.90
27128;DHT22;14660;49.008;8.390;2023-02-26T06:31:22;1.30;99.90
27128;DHT22;14660;49.008;8.390;2023-02-26T06:33:49;1.10;99.90
27128;DHT22;14660;49.008;8.390;2023-02-26T06:36:16;1.00;99.90
27128;DHT22;14660;49.008;8.390;2023-02-26T06:38:43;1.10;99.90
27128;DHT22;14660;49.008;8.390;2023-02-26T06:41:11;1.30;99.90
27128;DHT22;14660;49.008;8.390;2023-02-26T06:43:38;1.30;99.90
27128;DHT22;14660;49.008;8.390;2023-02-26T06:46:04;1.30;99.90
27128;DHT22;14660;49.008;8.390;2023-02-26T06:48:33;1.20;99.90
27128;DHT22;14660;49.008;8.390;2023-02-26T06:51:00;1.50;99.90
27128;DHT22;14660;49.008;8.390;2023-02-26T06:53:27;1.50;99.90
27128;DHT22;14660;49.008;8.390;2023-02-26T06:55:55;1.50;99.90
27128;DHT22;14660;49.008;8.390;2023-02-26T06:58:22;1.20;99.90
27128;DHT22;14660;49.008;8.390;2023-02-26T07:00:49;1.10;99.90
27128;DHT22;14660;49.008;8.390;2023-02-26T07:03:17;1.40;99.90
27128;DHT22;14660;49.008;8.390;2023-02-26T07:05:44;1.50;99.90
27128;DHT22;14660;49.008;8.390;2023-02-26T07:08:12;1.60;99.90
27128;DHT22;14660;49.008;8.390;2023-02-26T07:10:40;1.60;99.90
27128;DHT22;14660;49.008;8.390;2023-02-26T07:13:07;1.60;99.90
27128;DHT22;14660;49.008;8.390;2023-02-26T07:15:32;1.80;99.90
27128;DHT22;14660;49.008;8.390;2023-02-26T07:17:59;2.00;99.90
27128;DHT22;14660;49.008;8.390;2023-02-26T07:20:27;2.00;99.90
27128;DHT22;14660;49.008;8.390;2023-02-26T07:22:55;1.80;99.90
27128;DHT22;14660;49.008;8.390;2023-02-26T07:25:23;1.50;99.90
27128;DHT22;14660;49.008;8.390;2023-02-26T07:27:50;1.60;99.90
27128;DHT22;14660;49.008;8.390;2023-02-26T07:30:17;1.70;99.90
27128;DHT22;14660;49.008;8.390;2023-02-26T07:32:42;1.80;99.90
27128;DHT22;14660;49.008;8.390;2023-02-26T07:35:09;1.70;99.90
27128;DHT22;14660;49.008;8.390;2023-02-26T07:37:36;1.80;99.90
27128;DHT22;14660;49.008;8.390;2023-02-26T07:40:03;1.80;99.90
27128;DHT22;14660;49.008;8.390;2023-02-26T07:42:30;1.70;99.90
27128;DHT22;14660;49.008;8.390;2023-02-26T07:44:57;1.80;99.90
27128;DHT22;14660;49.008;8.390;2023-02-26T07:47:27;1.70;99.90
27128;DHT22;14660;49.008;8.390;2023-02-26T07:49:55;2.00;99.90
27128;DHT22;14660;49.008;8.390;2023-02-26T07:52:22;2.10;99.90
27128;DHT22;14660;49.008;8.390;2023-02-26T07:54:49;2.10;99.90
27128;DHT22;14660;49.008;8.390;2023-02-26T07:57:16;2.10;99.90
27128;DHT22;14660;49.008;8.390;2023-02-26T07:59:43;2.30;99.90
27128;DHT22;14660;49.008;8.390;2023-02-26T08:02:11;2.20;99.90
27128;DHT22;14660;49.008;8.390;2023-02-26T08:04:38;2.20;99.90
27128;DHT22;14660;49.008;8.390;2023-02-26T08:07:05;2.50;99.90
27128;DHT22;14660;49.008;8.390;2023-02-26T08:09:33;2.50;99.90
27128;DHT22;14660;49.008;8.390;2023-02-26T08:12:00;2.60;99.90
27128;DHT22;14660;49.008;8.390;2023-02-26T08:14:27;2.70;99.90
27128;DHT22;14660;49.008;8.390;2023-02-26T08:16:54;2.50;99.90
27128;DHT22;14660;49.008;8.390;2023-02-26T08:19:21;2.60;99.90
27128;DHT22;14660;49.008;8.390;2023-02-26T08:21:48;2.70;99.90
27128;DHT22;14660;49.008;8.390;2023-02-26T08:24:15;2.80;99.90
27128;DHT22;14660;49.008;8.390;2023-02-26T08:26:42;2.80;99.90
27128;DHT22;14660;49.008;8.390;2023-02-26T08:29:08;2.60;99.90
27128;DHT22;14660;49.008;8.390;2023-02-26T08:31:35;2.60;99.90
27128;DHT22;14660;49.008;8.390;2023-02-26T08:34:02;2.60;99.90
27128;DHT22;14660;49.008;8.390;2023-02-26T08:36:30;3.00;99.90
27128;DHT22;14660;49.008;8.390;2023-02-26T08:38:57;3.00;99.90
27128;DHT22;14660;49.008;8.390;2023-02-26T08:41:24;2.70;99.90
27128;DHT22;14660;49.008;8.390;2023-02-26T08:43:52;2.70;99.90
27128;DHT22;14660;49.008;8.390;2023-02-26T08:46:18;2.70;99.90
27128;DHT22;14660;49.008;8.390;2023-02-26T08:48:44;2.70;99.90
27128;DHT22;14660;49.008;8.390;2023-02-26T08:51:11;2.80;99.90
27128;DHT22;14660;49.008;8.390;2023-02-26T08:53:38;2.80;99.90
27128;DHT22;14660;49.008;8.390;2023-02-26T08:56:06;2.70;99.90
27128;DHT22;14660;49.008;8.390;2023-02-26T08:58:33;2.90;99.90
27128;DHT22;14660;49.008;8.390;2023-02-26T09:01:00;3.00;99.90
27128;DHT22;14660;49.008;8.390;2023-02-26T09:03:27;3.00;99.90
27128;DHT22;14660;49.008;8.390;2023-02-26T09:05:54;3.00;99.90
27128;DHT22;14660;49.008;8.390;2023-02-26T09:08:21;2.80;99.90
27128;DHT22;14660;49.008;8.390;2023-02-26T09:10:48;2.90;99.90
27128;DHT22;14660;49.008;8.390;2023-02-26T09:13:15;2.90;99.90
27128;DHT22;14660;49.008;8.390;2023-02-26T09:15:42;2.60;99.90
27128;DHT22;14660;49.008;8.390;2023-02-26T09:18:10;2.60;99.90
27128;DHT22;14660;49.008;8.390;2023-02-26T09:20:42;2.50;99.90
27128;DHT22;14660;49.008;8.390;2023-02-26T09:23:10;2.60;99.90
27128;DHT22;14660;49.008;8.390;2023-02-26T09:25:37;2.70;99.90
27128;DHT22;14660;49.008;8.390;2023-02-26T09:28:05;2.50;99.90
27128;DHT22;14660;49.008;8.390;2023-02-26T09:30:33;2.50;99.90
27128;DHT22;14660;49.008;8.390;2023-02-26T09:33:00;2.60;99.90
27128;DHT22;14660;49.008;8.390;2023-02-26T09:35:27;2.50;99.90
27128;DHT22;14660;49.008;8.390;2023-02-26T09:37:54;2.50;99.90
27128;DHT22;14660;49.008;8.390;2023-02-26T09:46:36;3.00;99.90
27128;DHT22;14660;49.008;8.390;2023-02-26T09:49:46;3.00;99.90
27128;DHT22;14660;49.008;8.390;2023-02-26T09:58:40;3.10;99.90
27128;DHT22;14660;49.008;8.390;2023-02-26T10:08:09;3.30;99.90
27128;DHT22;14660;49.008;8.390;2023-02-26T10:13:49;3.40;99.90
27128;DHT22;14660;49.008;8.390;2023-02-26T10:16:21;3.30;99.90
27128;DHT22;14660;49.008;8.390;2023-02-26T10:18:58;3.20;99.90
27128;DHT22;14660;49.008;8.390;2023-02-26T10:21:35;3.20;99.90
27128;DHT22;14660;49.008;8.390;2023-02-26T10:24:15;3.20;99.90
27128;DHT22;14660;49.008;8.390;2023-02-26T10:26:53;3.40;99.90
27128;DHT22;14660;49.008;8.390;2023-02-26T10:33:07;3.30;99.90
27128;DHT22;14660;49.008;8.390;2023-02-26T10:35:36;3.20;99.90
27128;DHT22;14660;49.008;8.390;2023-02-26T10:38:11;3.30;99.90
27128;DHT22;14660;49.008;8.390;2023-02-26T10:41:01;3.40;99.90
27128;DHT22;14660;49.008;8.390;2023-02-26T10:43:48;3.40;99.90
27128;DHT22;14660;49.008;8.390;2023-02-26T10:46:43;3.30;99.90
27128;DHT22;14660;49.008;8.390;2023-02-26T10:52:18;3.10;99.90
27128;DHT22;14660;49.008;8.390;2023-02-26T10:57:47;3.20;99.90
27128;DHT22;14660;49.008;8.390;2023-02-26T11:00:18;3.30;99.90
27128;DHT22;14660;49.008;8.390;2023-02-26T11:02:48;3.30;99.90
27128;DHT22;14660;49.008;8.390;2023-02-26T11:05:26;3.50;99.90
27128;DHT22;14660;49.008;8.390;2023-02-26T11:07:57;3.50;99.90
27128;DHT22;14660;49.008;8.390;2023-02-26T11:11:33;3.70;99.90
27128;DHT22;14660;49.008;8.390;2023-02-26T11:13:24;3.60;99.90
27128;DHT22;14660;49.008;8.390;2023-02-26T11:15:53;3.60;99.90
27128;DHT22;14660;49.008;8.390;2023-02-26T11:18:41;3.60;99.90
27128;DHT22;14660;49.008;8.390;2023-02-26T11:21:17;3.70;99.90
27128;DHT22;14660;49.008;8.390;2023-02-26T11:23:46;3.60;99.90
27128;DHT22;14660;49.008;8.390;2023-02-26T11:26:25;3.70;99.90
27128;DHT22;14660;49.008;8.390;2023-02-26T11:28:54;3.70;99.90
27128;DHT22;14660;49.008;8.390;2023-02-26T11:31:22;3.80;99.90
27128;DHT22;14660;49.008;8.390;2023-02-26T11:34:07;3.90;99.90
27128;DHT22;14660;49.008;8.390;2023-02-26T11:36:39;3.70;99.90
27128;DHT22;14660;49.008;8.390;2023-02-26T11:41:55;3.70;99.90
27128;DHT22;14660;49.008;8.390;2023-02-26T11:44:41;3.70;99.90
27128;DHT22;14660;49.008;8.390;2023-02-26T11:47:20;3.70;99.90
27128;DHT22;14660;49.008;8.390;2023-02-26T11:49:54;3.90;99.90
27128;DHT22;14660;49.008;8.390;2023-02-26T11:52:29;3.90;99.90
27128;DHT22;14660;49.008;8.390;2023-02-26T11:55:17;3.90;99.90
27128;DHT22;14660;49.008;8.390;2023-02-26T11:57:49;3.90;99.90
27128;DHT22;14660;49.008;8.390;2023-02-26T12:00:28;3.90;99.90
27128;DHT22;14660;49.008;8.390;2023-02-26T12:03:48;4.00;99.90
27128;DHT22;14660;49.008;8.390;2023-02-26T12:05:58;4.00;99.90
27128;DHT22;14660;49.008;8.390;2023-02-26T12:08:45;4.10;99.90
27128;DHT22;14660;49.008;8.390;2023-02-26T12:29:29;4.10;99.90
27128;DHT22;14660;49.008;8.390;2023-02-26T12:38:51;3.90;99.90
27128;DHT22;14660;49.008;8.390;2023-02-26T13:08:42;4.10;99.90
27128;DHT22;14660;49.008;8.390;2023-02-26T13:11:28;4.10;99.90
27128;DHT22;14660;49.008;8.390;2023-02-26T13:20:23;4.10;99.90
27128;DHT22;14660;49.008;8.390;2023-02-26T13:22:55;4.40;99.90
27128;DHT22;14660;49.008;8.390;2023-02-26T13:28:49;4.40;99.90
27128;DHT22;14660;49.008;8.390;2023-02-26T13:37:40;4.50;99.90
27128;DHT22;14660;49.008;8.390;2023-02-26T13:46:35;4.30;99.90
27128;DHT22;14660;49.008;8.390;2023-02-26T13:50:32;4.30;99.90
27128;DHT22;14660;49.008;8.390;2023-02-26T13:52:28;4.30;99.90
27128;DHT22;14660;49.008;8.390;2023-02-26T13:54:58;4.20;99.90
27128;DHT22;14660;49.008;8.390;2023-02-26T13:57:51;4.20;99.90
27128;DHT22;14660;49.008;8.390;2023-02-26T14:00:37;4.40;99.90
27128;DHT22;14660;49.008;8.390;2023-02-26T14:03:31;4.40;99.90
27128;DHT22;14660;49.008;8.390;2023-02-26T14:06:25;4.50;99.90
27128;DHT22;14660;49.008;8.390;2023-02-26T14:09:03;4.60;99.90
27128;DHT22;14660;49.008;8.390;2023-02-26T14:18:02;4.60;99.90
27128;DHT22;14660;49.008;8.390;2023-02-26T14:20:31;4.40;99.90
27128;DHT22;14660;49.008;8.390;2023-02-26T14:23:33;4.40;99.90
27128;DHT22;14660;49.008;8.390;2023-02-26T14:26:05;4.40;99.90
27128;DHT22;14660;49.008;8.390;2023-02-26T14:35:08;4.50;99.90
27128;DHT22;14660;49.008;8.390;2023-02-26T14:37:37;4.40;99.90
27128;DHT22;14660;49.008;8.390;2023-02-26T14:40:20;4.50;99.90
27128;DHT22;14660;49.008;8.390;2023-02-26T14:43:02;4.50;99.90
27128;DHT22;14660;49.008;8.390;2023-02-26T14:45:38;4.40;99.90
27128;DHT22;14660;49.008;8.390;2023-02-26T14:48:16;4.50;99.90
27128;DHT22;14660;49.008;8.390;2023-02-26T15:23:53;4.50;99.90
27128;DHT22;14660;49.008;8.390;2023-02-26T15:26:47;4.60;99.90
27128;DHT22;14660;49.008;8.390;2023-02-26T15:29:15;4.50;99.90
27128;DHT22;14660;49.008;8.390;2023-02-26T15:31:58;4.40;99.90
27128;DHT22;14660;49.008;8.390;2023-02-26T15:34:30;4.40;99.90
27128;DHT22;14660;49.008;8.390;2023-02-26T15:36:59;4.40;99.90
27128;DHT22;14660;49.008;8.390;2023-02-26T15:39:26;4.50;99.90
27128;DHT22;14660;49.008;8.390;2023-02-26T15:41:54;4.30;99.90
27128;DHT22;14660;49.008;8.390;2023-02-26T15:44:27;4.40;99.90
27128;DHT22;14660;49.008;8.390;2023-02-26T15:47:00;4.50;99.90
27128;DHT22;14660;49.008;8.390;2023-02-26T15:49:33;4.40;99.90
27128;DHT22;14660;49.008;8.390;2023-02-26T15:52:02;4.50;99.90
27128;DHT22;14660;49.008;8.390;2023-02-26T15:54:38;4.40;99.90
27128;DHT22;14660;49.008;8.390;2023-02-26T15:57:18;4.40;99.90
27128;DHT22;14660;49.008;8.390;2023-02-26T15:59:48;4.40;99.90
27128;DHT22;14660;49.008;8.390;2023-02-26T16:02:19;4.40;99.90
27128;DHT22;14660;49.008;8.390;2023-02-26T16:04:46;4.50;99.90
27128;DHT22;14660;49.008;8.390;2023-02-26T16:07:14;4.30;99.90
27128;DHT22;14660;49.008;8.390;2023-02-26T16:09:49;4.30;99.90
27128;DHT22;14660;49.008;8.390;2023-02-26T16:12:36;4.50;99.90
27128;DHT22;14660;49.008;8.390;2023-02-26T16:15:21;4.40;99.90
27128;DHT22;14660;49.008;8.390;2023-02-26T16:17:53;4.50;99.90
27128;DHT22;14660;49.008;8.390;2023-02-26T16:20:25;4.30;99.90
27128;DHT22;14660;49.008;8.390;2023-02-26T16:23:01;4.30;99.90
27128;DHT22;14660;49.008;8.390;2023-02-26T16:25:38;4.30;99.90
27128;DHT22;14660;49.008;8.390;2023-02-26T16:28:20;4.20;99.90
27128;DHT22;14660;49.008;8.390;2023-02-26T16:30:51;4.10;99.90
27128;DHT22;14660;49.008;8.390;2023-02-26T16:33:22;4.20;99.90
27128;DHT22;14660;49.008;8.390;2023-02-26T16:36:11;4.20;99.90
27128;DHT22;14660;49.008;8.390;2023-02-26T16:41:45;4.10;99.90
27128;DHT22;14660;49.008;8.390;2023-02-26T16:46:57;3.90;99.90
27128;DHT22;14660;49.008;8.390;2023-02-26T16:49:36;4.00;99.90
27128;DHT22;14660;49.008;8.390;2023-02-26T16:52:25;4.00;99.90
27128;DHT22;14660;49.008;8.390;2023-02-26T16:54:57;4.00;99.90
27128;DHT22;14660;49.008;8.390;2023-02-26T16:57:33;4.00;99.90
27128;DHT22;14660;49.008;8.390;2023-02-26T17:00:06;4.00;99.90
27128;DHT22;14660;49.008;8.390;2023-02-26T17:02:39;4.10;99.90
27128;DHT22;14660;49.008;8.390;2023-02-26T17:05:28;4.00;99.90
27128;DHT22;14660;49.008;8.390;2023-02-26T17:11:01;4.00;99.90
27128;DHT22;14660;49.008;8.390;2023-02-26T17:13:30;4.00;99.90
27128;DHT22;14660;49.008;8.390;2023-02-26T17:16:05;3.80;99.90
27128;DHT22;14660;49.008;8.390;2023-02-26T17:18:33;3.90;99.90
27128;DHT22;14660;49.008;8.390;2023-02-26T17:21:00;3.90;99.90
27128;DHT22;14660;49.008;8.390;2023-02-26T17:23:37;3.90;99.90
27128;DHT22;14660;49.008;8.390;2023-02-26T17:26:06;3.90;99.90
27128;DHT22;14660;49.008;8.390;2023-02-26T17:28:36;3.90;99.90
27128;DHT22;14660;49.008;8.390;2023-02-26T17:31:08;3.80;99.90
27128;DHT22;14660;49.008;8.390;2023-02-26T17:33:37;3.70;99.90
27128;DHT22;14660;49.008;8.390;2023-02-26T17:36:04;3.90;99.90
27128;DHT22;14660;49.008;8.390;2023-02-26T17:38:32;3.90;99.90
27128;DHT22;14660;49.008;8.390;2023-02-26T17:40:59;3.80;99.90
27128;DHT22;14660;49.008;8.390;2023-02-26T17:43:26;3.70;99.90
27128;DHT22;14660;49.008;8.390;2023-02-26T17:45:54;3.70;99.90
27128;DHT22;14660;49.008;8.390;2023-02-26T17:48:22;3.90;99.90
27128;DHT22;14660;49.008;8.390;2023-02-26T17:50:51;3.80;99.90
27128;DHT22;14660;49.008;8.390;2023-02-26T17:53:23;3.90;99.90
27128;DHT22;14660;49.008;8.390;2023-02-26T17:55:59;3.80;99.90
27128;DHT22;14660;49.008;8.390;2023-02-26T17:58:31;3.80;99.90
27128;DHT22;14660;49.008;8.390;2023-02-26T18:00:59;3.90;99.90
27128;DHT22;14660;49.008;8.390;2023-02-26T18:03:25;3.80;99.90
27128;DHT22;14660;49.008;8.390;2023-02-26T18:05:53;3.80;99.90
27128;DHT22;14660;49.008;8.390;2023-02-26T18:08:39;3.70;99.90
27128;DHT22;14660;49.008;8.390;2023-02-26T18:11:13;3.70;99.90
27128;DHT22;14660;49.008;8.390;2023-02-26T18:13:41;3.60;99.90
27128;DHT22;14660;49.008;8.390;2023-02-26T18:16:19;3.70;99.90
27128;DHT22;14660;49.008;8.390;2023-02-26T18:18:46;3.70;99.90
27128;DHT22;14660;49.008;8.390;2023-02-26T18:21:15;3.60;99.90
27128;DHT22;14660;49.008;8.390;2023-02-26T18:23:41;3.60;99.90
27128;DHT22;14660;49.008;8.390;2023-02-26T18:26:08;3.60;99.90
27128;DHT22;14660;49.008;8.390;2023-02-26T18:28:34;3.80;99.90
27128;DHT22;14660;49.008;8.390;2023-02-26T18:31:01;3.70;99.90
27128;DHT22;14660;49.008;8.390;2023-02-26T18:33:34;3.70;99.90
27128;DHT22;14660;49.008;8.390;2023-02-26T18:36:02;3.80;99.90
27128;DHT22;14660;49.008;8.390;2023-02-26T18:38:30;3.70;99.90
27128;DHT22;14660;49.008;8.390;2023-02-26T18:40:57;3.60;99.90
27128;DHT22;14660;49.008;8.390;2023-02-26T18:43:24;3.50;99.90
27128;DHT22;14660;49.008;8.390;2023-02-26T18:45:52;3.50;99.90
27128;DHT22;14660;49.008;8.390;2023-02-26T18:48:19;3.50;99.90
27128;DHT22;14660;49.008;8.390;2023-02-26T18:50:46;3.50;99.90
27128;DHT22;14660;49.008;8.390;2023-02-26T18:53:13;3.40;99.90
27128;DHT22;14660;49.008;8.390;2023-02-26T18:55:43;3.40;99.90
27128;DHT22;14660;49.008;8.390;2023-02-26T18:58:11;3.40;99.90
27128;DHT22;14660;49.008;8.390;2023-02-26T19:00:38;3.40;99.90
27128;DHT22;14660;49.008;8.390;2023-02-26T19:03:05;3.40;99.90
27128;DHT22;14660;49.008;8.390;2023-02-26T19:05:35;3.40;99.90
27128;DHT22;14660;49.008;8.390;2023-02-26T19:08:03;3.40;99.90
27128;DHT22;14660;49.008;8.390;2023-02-26T19:10:30;3.40;99.90
27128;DHT22;14660;49.008;8.390;2023-02-26T19:12:59;3.50;99.90
27128;DHT22;14660;49.008;8.390;2023-02-26T19:15:25;3.40;99.90
27128;DHT22;14660;49.008;8.390;2023-02-26T19:17:52;3.30;99.90
27128;DHT22;14660;49.008;8.390;2023-02-26T19:20:18;3.30;99.90
27128;DHT22;14660;49.008;8.390;2023-02-26T19:22:46;3.50;99.90
27128;DHT22;14660;49.008;8.390;2023-02-26T19:25:14;3.30;99.90
27128;DHT22;14660;49.008;8.390;2023-02-26T19:27:42;3.40;99.90
27128;DHT22;14660;49.008;8.390;2023-02-26T19:30:09;3.20;99.90
27128;DHT22;14660;49.008;8.390;2023-02-26T19:32:36;3.10;99.90
27128;DHT22;14660;49.008;8.390;2023-02-26T19:35:03;3.00;99.90
27128;DHT22;14660;49.008;8.390;2023-02-26T19:37:30;3.10;99.90
27128;DHT22;14660;49.008;8.390;2023-02-26T19:39:57;3.00;99.90
27128;DHT22;14660;49.008;8.390;2023-02-26T19:42:24;3.10;99.90
27128;DHT22;14660;49.008;8.390;2023-02-26T19:44:54;3.10;99.90
27128;DHT22;14660;49.008;8.390;2023-02-26T19:47:20;3.10;99.90
27128;DHT22;14660;49.008;8.390;2023-02-26T19:49:47;3.10;99.90
27128;DHT22;14660;49.008;8.390;2023-02-26T19:52:14;2.90;99.90
27128;DHT22;14660;49.008;8.390;2023-02-26T19:54:41;3.10;99.90
27128;DHT22;14660;49.008;8.390;2023-02-26T19:57:08;3.00;99.90
27128;DHT22;14660;49.008;8.390;2023-02-26T19:59:35;2.90;99.90
27128;DHT22;14660;49.008;8.390;2023-02-26T20:02:01;2.80;99.90